sensor_id;sensor_type;location;lat;lon;timestamp;P1;durP1;ratioP1;P2;durP2;ratioP2
71127;SDS011;59249;59.736;30.568;2023-07-31T00:01:28;22.15;;;11.70;;
71127;SDS011;59249;59.736;30.568;2023-07-31T00:03:57;23.75;;;13.15;;
71127;SDS011;59249;59.736;30.568;2023-07-31T00:06:30;19.90;;;12.48;;
71127;SDS011;59249;59.736;30.568;2023-07-31T00:08:59;22.48;;;12.80;;
71127;SDS011;59249;59.736;30.568;2023-07-31T00:11:29;25.30;;;15.87;;
71127;SDS011;59249;59.736;30.568;2023-07-31T00:13:58;21.88;;;12.90;;
71127;SDS011;59249;59.736;30.568;2023-07-31T00:16:28;22.83;;;12.48;;
71127;SDS011;59249;59.736;30.568;2023-07-31T00:18:57;29.48;;;18.52;;
71127;SDS011;59249;59.736;30.568;2023-07-31T00:21:27;27.85;;;17.75;;
71127;SDS011;59249;59.736;30.568;2023-07-31T00:23:57;26.93;;;16.10;;
71127;SDS011;59249;59.736;30.568;2023-07-31T00:26:27;22.55;;;14.30;;
71127;SDS011;59249;59.736;30.568;2023-07-31T00:28:58;24.38;;;15.55;;
71127;SDS011;59249;59.736;30.568;2023-07-31T00:31:27;20.50;;;14.30;;
71127;SDS011;59249;59.736;30.568;2023-07-31T00:33:59;25.60;;;17.40;;
71127;SDS011;59249;59.736;30.568;2023-07-31T00:36:28;26.00;;;18.43;;
71127;SDS011;59249;59.736;30.568;2023-07-31T00:38:57;26.25;;;18.75;;
71127;SDS011;59249;59.736;30.568;2023-07-31T00:41:28;29.88;;;19.58;;
71127;SDS011;59249;59.736;30.568;2023-07-31T00:43:57;26.45;;;17.67;;
71127;SDS011;59249;59.736;30.568;2023-07-31T00:46:26;27.33;;;17.58;;
71127;SDS011;59249;59.736;30.568;2023-07-31T00:48:56;30.10;;;17.90;;
71127;SDS011;59249;59.736;30.568;2023-07-31T00:51:25;23.33;;;16.52;;
71127;SDS011;59249;59.736;30.568;2023-07-31T00:53:55;20.73;;;14.77;;
71127;SDS011;59249;59.736;30.568;2023-07-31T00:56:25;24.75;;;15.23;;
71127;SDS011;59249;59.736;30.568;2023-07-31T00:58:57;27.23;;;16.45;;
71127;SDS011;59249;59.736;30.568;2023-07-31T01:01:27;22.93;;;13.80;;
71127;SDS011;59249;59.736;30.568;2023-07-31T01:03:56;17.98;;;11.98;;
71127;SDS011;59249;59.736;30.568;2023-07-31T01:06:27;17.67;;;12.15;;
71127;SDS011;59249;59.736;30.568;2023-07-31T01:09:06;21.73;;;11.98;;
71127;SDS011;59249;59.736;30.568;2023-07-31T01:11:46;19.70;;;10.52;;
71127;SDS011;59249;59.736;30.568;2023-07-31T01:14:24;17.30;;;10.17;;
71127;SDS011;59249;59.736;30.568;2023-07-31T01:16:53;15.23;;;10.68;;
71127;SDS011;59249;59.736;30.568;2023-07-31T01:19:23;15.50;;;9.65;;
71127;SDS011;59249;59.736;30.568;2023-07-31T01:21:58;15.27;;;9.95;;
71127;SDS011;59249;59.736;30.568;2023-07-31T01:25:12;21.95;;;10.15;;
71127;SDS011;59249;59.736;30.568;2023-07-31T01:28:08;13.20;;;8.73;;
71127;SDS011;59249;59.736;30.568;2023-07-31T01:30:43;20.88;;;11.05;;
71127;SDS011;59249;59.736;30.568;2023-07-31T01:33:16;13.73;;;9.32;;
71127;SDS011;59249;59.736;30.568;2023-07-31T01:35:46;16.42;;;9.27;;
71127;SDS011;59249;59.736;30.568;2023-07-31T01:38:20;13.68;;;9.80;;
71127;SDS011;59249;59.736;30.568;2023-07-31T01:40:51;13.37;;;8.77;;
71127;SDS011;59249;59.736;30.568;2023-07-31T01:43:22;16.02;;;9.10;;
71127;SDS011;59249;59.736;30.568;2023-07-31T01:45:51;18.73;;;9.13;;
71127;SDS011;59249;59.736;30.568;2023-07-31T01:48:20;15.90;;;8.60;;
71127;SDS011;59249;59.736;30.568;2023-07-31T01:50:50;15.15;;;8.95;;
71127;SDS011;59249;59.736;30.568;2023-07-31T01:53:18;20.03;;;9.80;;
71127;SDS011;59249;59.736;30.568;2023-07-31T01:55:47;20.88;;;9.35;;
71127;SDS011;59249;59.736;30.568;2023-07-31T01:58:16;20.10;;;8.57;;
71127;SDS011;59249;59.736;30.568;2023-07-31T02:00:47;16.35;;;9.07;;
71127;SDS011;59249;59.736;30.568;2023-07-31T02:03:16;18.77;;;9.02;;
71127;SDS011;59249;59.736;30.568;2023-07-31T02:05:45;14.73;;;7.90;;
71127;SDS011;59249;59.736;30.568;2023-07-31T02:08:17;18.25;;;8.70;;
71127;SDS011;59249;59.736;30.568;2023-07-31T02:10:46;18.92;;;9.55;;
71127;SDS011;59249;59.736;30.568;2023-07-31T02:13:15;20.27;;;9.95;;
71127;SDS011;59249;59.736;30.568;2023-07-31T02:15:45;20.48;;;9.85;;
71127;SDS011;59249;59.736;30.568;2023-07-31T02:18:16;18.10;;;9.97;;
71127;SDS011;59249;59.736;30.568;2023-07-31T02:20:48;20.33;;;9.43;;
71127;SDS011;59249;59.736;30.568;2023-07-31T02:23:19;18.90;;;8.73;;
71127;SDS011;59249;59.736;30.568;2023-07-31T02:25:49;14.77;;;8.07;;
71127;SDS011;59249;59.736;30.568;2023-07-31T02:28:25;19.65;;;8.68;;
71127;SDS011;59249;59.736;30.568;2023-07-31T02:30:56;16.00;;;7.93;;
71127;SDS011;59249;59.736;30.568;2023-07-31T02:33:29;16.70;;;8.07;;
71127;SDS011;59249;59.736;30.568;2023-07-31T02:35:58;15.05;;;6.13;;
71127;SDS011;59249;59.736;30.568;2023-07-31T02:38:27;13.70;;;5.97;;
71127;SDS011;59249;59.736;30.568;2023-07-31T02:40:56;11.55;;;6.50;;
71127;SDS011;59249;59.736;30.568;2023-07-31T02:43:27;11.67;;;5.73;;
71127;SDS011;59249;59.736;30.568;2023-07-31T02:45:56;13.30;;;5.65;;
71127;SDS011;59249;59.736;30.568;2023-07-31T02:48:26;13.07;;;7.43;;
71127;SDS011;59249;59.736;30.568;2023-07-31T02:50:59;15.48;;;7.38;;
71127;SDS011;59249;59.736;30.568;2023-07-31T02:53:30;12.00;;;5.70;;
71127;SDS011;59249;59.736;30.568;2023-07-31T02:55:59;12.00;;;6.27;;
71127;SDS011;59249;59.736;30.568;2023-07-31T02:58:29;18.25;;;6.28;;
71127;SDS011;59249;59.736;30.568;2023-07-31T03:00:58;12.65;;;7.35;;
71127;SDS011;59249;59.736;30.568;2023-07-31T03:03:27;13.00;;;6.78;;
71127;SDS011;59249;59.736;30.568;2023-07-31T03:05:56;13.70;;;6.72;;
71127;SDS011;59249;59.736;30.568;2023-07-31T03:08:30;13.23;;;6.57;;
71127;SDS011;59249;59.736;30.568;2023-07-31T03:11:00;16.50;;;8.20;;
71127;SDS011;59249;59.736;30.568;2023-07-31T03:13:30;15.25;;;7.00;;
71127;SDS011;59249;59.736;30.568;2023-07-31T03:15:59;12.25;;;6.38;;
71127;SDS011;59249;59.736;30.568;2023-07-31T03:18:28;13.25;;;5.97;;
71127;SDS011;59249;59.736;30.568;2023-07-31T03:20:57;15.37;;;6.40;;
71127;SDS011;59249;59.736;30.568;2023-07-31T03:23:26;12.00;;;6.60;;
71127;SDS011;59249;59.736;30.568;2023-07-31T03:25:57;14.40;;;6.03;;
71127;SDS011;59249;59.736;30.568;2023-07-31T03:28:28;11.02;;;6.03;;
71127;SDS011;59249;59.736;30.568;2023-07-31T03:30:58;13.27;;;5.55;;
71127;SDS011;59249;59.736;30.568;2023-07-31T03:33:27;10.10;;;5.00;;
71127;SDS011;59249;59.736;30.568;2023-07-31T03:35:57;11.23;;;5.40;;
71127;SDS011;59249;59.736;30.568;2023-07-31T03:38:26;8.63;;;4.90;;
71127;SDS011;59249;59.736;30.568;2023-07-31T03:40:57;11.80;;;5.65;;
71127;SDS011;59249;59.736;30.568;2023-07-31T03:43:26;11.20;;;5.18;;
71127;SDS011;59249;59.736;30.568;2023-07-31T03:45:56;12.07;;;5.07;;
71127;SDS011;59249;59.736;30.568;2023-07-31T03:48:25;8.75;;;4.72;;
71127;SDS011;59249;59.736;30.568;2023-07-31T03:50:54;11.18;;;4.80;;
71127;SDS011;59249;59.736;30.568;2023-07-31T03:53:24;11.15;;;4.78;;
71127;SDS011;59249;59.736;30.568;2023-07-31T03:55:54;9.15;;;3.97;;
71127;SDS011;59249;59.736;30.568;2023-07-31T03:58:24;10.20;;;4.93;;
71127;SDS011;59249;59.736;30.568;2023-07-31T04:00:56;13.05;;;5.15;;
71127;SDS011;59249;59.736;30.568;2023-07-31T04:03:42;10.27;;;4.85;;
71127;SDS011;59249;59.736;30.568;2023-07-31T04:06:11;10.80;;;4.75;;
71127;SDS011;59249;59.736;30.568;2023-07-31T04:08:40;9.90;;;4.65;;
71127;SDS011;59249;59.736;30.568;2023-07-31T04:11:17;15.80;;;5.33;;
71127;SDS011;59249;59.736;30.568;2023-07-31T04:13:47;10.98;;;4.95;;
71127;SDS011;59249;59.736;30.568;2023-07-31T04:16:16;10.43;;;5.05;;
71127;SDS011;59249;59.736;30.568;2023-07-31T04:18:46;10.75;;;4.32;;
71127;SDS011;59249;59.736;30.568;2023-07-31T04:21:14;8.70;;;3.70;;
71127;SDS011;59249;59.736;30.568;2023-07-31T04:23:44;9.97;;;3.60;;
71127;SDS011;59249;59.736;30.568;2023-07-31T04:26:13;9.60;;;3.70;;
71127;SDS011;59249;59.736;30.568;2023-07-31T04:28:42;11.18;;;4.65;;
71127;SDS011;59249;59.736;30.568;2023-07-31T04:31:13;10.18;;;4.57;;
71127;SDS011;59249;59.736;30.568;2023-07-31T04:33:42;10.82;;;4.60;;
71127;SDS011;59249;59.736;30.568;2023-07-31T04:36:11;7.67;;;3.57;;
71127;SDS011;59249;59.736;30.568;2023-07-31T04:38:40;9.07;;;3.80;;
71127;SDS011;59249;59.736;30.568;2023-07-31T04:41:09;10.65;;;3.53;;
71127;SDS011;59249;59.736;30.568;2023-07-31T04:43:39;8.00;;;3.75;;
71127;SDS011;59249;59.736;30.568;2023-07-31T04:46:12;9.70;;;3.38;;
71127;SDS011;59249;59.736;30.568;2023-07-31T04:48:42;7.50;;;2.80;;
71127;SDS011;59249;59.736;30.568;2023-07-31T04:51:11;6.80;;;2.92;;
71127;SDS011;59249;59.736;30.568;2023-07-31T04:53:40;6.97;;;3.17;;
71127;SDS011;59249;59.736;30.568;2023-07-31T04:56:09;7.85;;;2.75;;
71127;SDS011;59249;59.736;30.568;2023-07-31T04:58:38;6.68;;;2.90;;
71127;SDS011;59249;59.736;30.568;2023-07-31T05:01:07;5.93;;;2.63;;
71127;SDS011;59249;59.736;30.568;2023-07-31T05:03:38;8.30;;;3.22;;
71127;SDS011;59249;59.736;30.568;2023-07-31T05:06:07;8.77;;;3.30;;
71127;SDS011;59249;59.736;30.568;2023-07-31T05:08:36;9.75;;;2.95;;
71127;SDS011;59249;59.736;30.568;2023-07-31T05:11:06;9.02;;;3.03;;
71127;SDS011;59249;59.736;30.568;2023-07-31T05:13:35;6.63;;;3.03;;
71127;SDS011;59249;59.736;30.568;2023-07-31T05:16:04;6.13;;;2.97;;
71127;SDS011;59249;59.736;30.568;2023-07-31T05:18:33;6.95;;;2.67;;
71127;SDS011;59249;59.736;30.568;2023-07-31T05:21:04;7.43;;;2.58;;
71127;SDS011;59249;59.736;30.568;2023-07-31T05:23:33;6.95;;;2.88;;
71127;SDS011;59249;59.736;30.568;2023-07-31T05:26:02;8.27;;;2.87;;
71127;SDS011;59249;59.736;30.568;2023-07-31T05:28:33;6.50;;;2.65;;
71127;SDS011;59249;59.736;30.568;2023-07-31T05:31:04;9.05;;;2.92;;
71127;SDS011;59249;59.736;30.568;2023-07-31T05:33:35;8.70;;;3.28;;
71127;SDS011;59249;59.736;30.568;2023-07-31T05:36:05;9.60;;;3.10;;
71127;SDS011;59249;59.736;30.568;2023-07-31T05:38:34;8.13;;;3.63;;
71127;SDS011;59249;59.736;30.568;2023-07-31T05:41:04;8.05;;;3.65;;
71127;SDS011;59249;59.736;30.568;2023-07-31T05:43:33;8.90;;;3.35;;
71127;SDS011;59249;59.736;30.568;2023-07-31T05:46:02;6.90;;;3.42;;
71127;SDS011;59249;59.736;30.568;2023-07-31T05:48:32;6.63;;;3.15;;
71127;SDS011;59249;59.736;30.568;2023-07-31T05:51:02;7.90;;;3.10;;
71127;SDS011;59249;59.736;30.568;2023-07-31T05:53:33;6.55;;;3.30;;
71127;SDS011;59249;59.736;30.568;2023-07-31T05:56:03;8.05;;;3.20;;
71127;SDS011;59249;59.736;30.568;2023-07-31T05:58:32;8.07;;;3.63;;
71127;SDS011;59249;59.736;30.568;2023-07-31T06:01:01;8.82;;;3.70;;
71127;SDS011;59249;59.736;30.568;2023-07-31T06:03:30;7.60;;;3.83;;
71127;SDS011;59249;59.736;30.568;2023-07-31T06:06:00;10.48;;;3.58;;
71127;SDS011;59249;59.736;30.568;2023-07-31T06:08:29;9.57;;;4.07;;
71127;SDS011;59249;59.736;30.568;2023-07-31T06:11:04;10.32;;;3.85;;
71127;SDS011;59249;59.736;30.568;2023-07-31T06:13:34;12.13;;;3.88;;
71127;SDS011;59249;59.736;30.568;2023-07-31T06:16:03;20.80;;;5.37;;
71127;SDS011;59249;59.736;30.568;2023-07-31T06:18:33;17.42;;;4.95;;
71127;SDS011;59249;59.736;30.568;2023-07-31T06:21:02;20.92;;;5.15;;
71127;SDS011;59249;59.736;30.568;2023-07-31T06:23:31;16.58;;;5.43;;
71127;SDS011;59249;59.736;30.568;2023-07-31T06:26:00;19.15;;;5.07;;
71127;SDS011;59249;59.736;30.568;2023-07-31T06:28:31;18.63;;;5.00;;
71127;SDS011;59249;59.736;30.568;2023-07-31T06:31:01;22.42;;;5.38;;
71127;SDS011;59249;59.736;30.568;2023-07-31T06:33:32;12.88;;;3.63;;
71127;SDS011;59249;59.736;30.568;2023-07-31T06:36:01;6.63;;;2.60;;
71127;SDS011;59249;59.736;30.568;2023-07-31T06:38:30;4.57;;;2.20;;
71127;SDS011;59249;59.736;30.568;2023-07-31T06:41:00;5.00;;;1.70;;
71127;SDS011;59249;59.736;30.568;2023-07-31T06:43:30;4.38;;;1.85;;
71127;SDS011;59249;59.736;30.568;2023-07-31T06:46:00;4.80;;;1.45;;
71127;SDS011;59249;59.736;30.568;2023-07-31T06:48:34;6.50;;;1.60;;
71127;SDS011;59249;59.736;30.568;2023-07-31T06:51:03;4.97;;;1.85;;
71127;SDS011;59249;59.736;30.568;2023-07-31T06:53:32;6.73;;;1.80;;
71127;SDS011;59249;59.736;30.568;2023-07-31T06:56:02;7.22;;;1.73;;
71127;SDS011;59249;59.736;30.568;2023-07-31T06:58:33;4.90;;;1.58;;
71127;SDS011;59249;59.736;30.568;2023-07-31T07:01:02;5.93;;;1.67;;
71127;SDS011;59249;59.736;30.568;2023-07-31T07:03:32;4.93;;;1.65;;
71127;SDS011;59249;59.736;30.568;2023-07-31T07:06:02;4.73;;;1.70;;
71127;SDS011;59249;59.736;30.568;2023-07-31T07:08:31;4.05;;;1.80;;
71127;SDS011;59249;59.736;30.568;2023-07-31T07:11:00;4.60;;;1.60;;
71127;SDS011;59249;59.736;30.568;2023-07-31T07:13:30;4.25;;;1.60;;
71127;SDS011;59249;59.736;30.568;2023-07-31T07:16:00;4.95;;;1.75;;
71127;SDS011;59249;59.736;30.568;2023-07-31T07:18:30;4.47;;;1.80;;
71127;SDS011;59249;59.736;30.568;2023-07-31T07:20:59;4.47;;;1.45;;
71127;SDS011;59249;59.736;30.568;2023-07-31T07:23:29;6.63;;;2.35;;
71127;SDS011;59249;59.736;30.568;2023-07-31T07:25:58;4.97;;;1.88;;
71127;SDS011;59249;59.736;30.568;2023-07-31T07:28:27;7.85;;;1.85;;
71127;SDS011;59249;59.736;30.568;2023-07-31T07:30:56;3.40;;;1.60;;
71127;SDS011;59249;59.736;30.568;2023-07-31T07:33:27;7.40;;;2.20;;
71127;SDS011;59249;59.736;30.568;2023-07-31T07:35:59;4.47;;;1.60;;
71127;SDS011;59249;59.736;30.568;2023-07-31T07:38:31;6.15;;;2.78;;
71127;SDS011;59249;59.736;30.568;2023-07-31T07:41:00;3.92;;;1.70;;
71127;SDS011;59249;59.736;30.568;2023-07-31T07:43:29;5.10;;;1.97;;
71127;SDS011;59249;59.736;30.568;2023-07-31T07:45:58;10.10;;;2.13;;
71127;SDS011;59249;59.736;30.568;2023-07-31T07:48:29;5.07;;;1.63;;
71127;SDS011;59249;59.736;30.568;2023-07-31T07:50:58;4.72;;;1.52;;
71127;SDS011;59249;59.736;30.568;2023-07-31T07:53:27;6.57;;;1.88;;
71127;SDS011;59249;59.736;30.568;2023-07-31T07:55:56;8.27;;;1.70;;
71127;SDS011;59249;59.736;30.568;2023-07-31T07:58:25;5.07;;;2.00;;
71127;SDS011;59249;59.736;30.568;2023-07-31T08:00:54;3.58;;;1.38;;
71127;SDS011;59249;59.736;30.568;2023-07-31T08:03:23;4.70;;;1.50;;
71127;SDS011;59249;59.736;30.568;2023-07-31T08:05:58;4.60;;;1.60;;
71127;SDS011;59249;59.736;30.568;2023-07-31T08:08:28;3.73;;;1.63;;
71127;SDS011;59249;59.736;30.568;2023-07-31T08:10:57;4.75;;;1.80;;
71127;SDS011;59249;59.736;30.568;2023-07-31T08:13:26;9.88;;;1.75;;
71127;SDS011;59249;59.736;30.568;2023-07-31T08:15:55;6.70;;;1.77;;
71127;SDS011;59249;59.736;30.568;2023-07-31T08:18:25;4.18;;;1.70;;
71127;SDS011;59249;59.736;30.568;2023-07-31T08:20:54;3.70;;;1.60;;
71127;SDS011;59249;59.736;30.568;2023-07-31T08:23:25;5.32;;;2.15;;
71127;SDS011;59249;59.736;30.568;2023-07-31T08:25:54;4.55;;;1.95;;
71127;SDS011;59249;59.736;30.568;2023-07-31T08:28:23;5.75;;;1.80;;
71127;SDS011;59249;59.736;30.568;2023-07-31T08:30:52;5.53;;;1.70;;
71127;SDS011;59249;59.736;30.568;2023-07-31T08:33:21;4.67;;;1.93;;
71127;SDS011;59249;59.736;30.568;2023-07-31T08:35:51;5.47;;;1.83;;
71127;SDS011;59249;59.736;30.568;2023-07-31T08:38:20;4.68;;;1.83;;
71127;SDS011;59249;59.736;30.568;2023-07-31T08:40:53;4.32;;;2.10;;
71127;SDS011;59249;59.736;30.568;2023-07-31T08:43:23;6.43;;;2.20;;
71127;SDS011;59249;59.736;30.568;2023-07-31T08:45:55;4.90;;;1.90;;
71127;SDS011;59249;59.736;30.568;2023-07-31T08:48:24;7.15;;;2.03;;
71127;SDS011;59249;59.736;30.568;2023-07-31T08:50:55;4.40;;;1.98;;
71127;SDS011;59249;59.736;30.568;2023-07-31T08:53:24;4.70;;;1.80;;
71127;SDS011;59249;59.736;30.568;2023-07-31T08:55:54;5.15;;;2.17;;
71127;SDS011;59249;59.736;30.568;2023-07-31T08:58:27;4.70;;;2.13;;
71127;SDS011;59249;59.736;30.568;2023-07-31T09:01:01;4.43;;;1.80;;
71127;SDS011;59249;59.736;30.568;2023-07-31T09:03:33;3.78;;;1.67;;
71127;SDS011;59249;59.736;30.568;2023-07-31T09:06:04;4.00;;;1.90;;
71127;SDS011;59249;59.736;30.568;2023-07-31T09:08:35;4.22;;;1.52;;
71127;SDS011;59249;59.736;30.568;2023-07-31T09:11:11;3.93;;;1.80;;
71127;SDS011;59249;59.736;30.568;2023-07-31T09:13:41;4.18;;;1.60;;
71127;SDS011;59249;59.736;30.568;2023-07-31T09:16:11;4.07;;;1.55;;
71127;SDS011;59249;59.736;30.568;2023-07-31T09:18:52;4.50;;;1.65;;
71127;SDS011;59249;59.736;30.568;2023-07-31T09:21:24;3.67;;;1.52;;
71127;SDS011;59249;59.736;30.568;2023-07-31T09:23:55;4.30;;;1.63;;
71127;SDS011;59249;59.736;30.568;2023-07-31T09:26:32;3.38;;;1.50;;
71127;SDS011;59249;59.736;30.568;2023-07-31T09:29:05;3.88;;;1.55;;
71127;SDS011;59249;59.736;30.568;2023-07-31T09:31:46;3.00;;;1.30;;
71127;SDS011;59249;59.736;30.568;2023-07-31T09:34:15;3.47;;;1.75;;
71127;SDS011;59249;59.736;30.568;2023-07-31T09:36:45;3.83;;;1.27;;
71127;SDS011;59249;59.736;30.568;2023-07-31T09:39:16;4.00;;;1.50;;
71127;SDS011;59249;59.736;30.568;2023-07-31T09:41:54;4.60;;;1.50;;
71127;SDS011;59249;59.736;30.568;2023-07-31T09:44:36;3.67;;;1.35;;
71127;SDS011;59249;59.736;30.568;2023-07-31T09:47:16;4.75;;;1.45;;
71127;SDS011;59249;59.736;30.568;2023-07-31T09:49:52;3.67;;;1.07;;
71127;SDS011;59249;59.736;30.568;2023-07-31T09:52:22;4.15;;;1.45;;
71127;SDS011;59249;59.736;30.568;2023-07-31T09:54:54;4.43;;;1.67;;
71127;SDS011;59249;59.736;30.568;2023-07-31T09:57:24;4.22;;;1.60;;
71127;SDS011;59249;59.736;30.568;2023-07-31T09:59:57;3.90;;;1.52;;
71127;SDS011;59249;59.736;30.568;2023-07-31T10:02:38;4.43;;;1.37;;
71127;SDS011;59249;59.736;30.568;2023-07-31T10:05:08;3.88;;;1.63;;
71127;SDS011;59249;59.736;30.568;2023-07-31T10:07:42;3.60;;;1.48;;
71127;SDS011;59249;59.736;30.568;2023-07-31T10:10:19;4.63;;;1.60;;
71127;SDS011;59249;59.736;30.568;2023-07-31T10:12:51;4.30;;;1.58;;
71127;SDS011;59249;59.736;30.568;2023-07-31T10:15:22;4.20;;;1.77;;
71127;SDS011;59249;59.736;30.568;2023-07-31T10:17:53;5.18;;;1.50;;
71127;SDS011;59249;59.736;30.568;2023-07-31T10:20:24;3.13;;;1.30;;
71127;SDS011;59249;59.736;30.568;2023-07-31T10:22:55;3.10;;;1.45;;
71127;SDS011;59249;59.736;30.568;2023-07-31T10:25:26;5.55;;;1.60;;
71127;SDS011;59249;59.736;30.568;2023-07-31T10:27:58;2.93;;;1.13;;
71127;SDS011;59249;59.736;30.568;2023-07-31T10:30:30;5.40;;;1.48;;
71127;SDS011;59249;59.736;30.568;2023-07-31T10:33:05;3.42;;;1.27;;
71127;SDS011;59249;59.736;30.568;2023-07-31T10:35:36;3.95;;;1.30;;
71127;SDS011;59249;59.736;30.568;2023-07-31T10:38:09;4.00;;;1.60;;
71127;SDS011;59249;59.736;30.568;2023-07-31T10:40:39;3.60;;;1.50;;
71127;SDS011;59249;59.736;30.568;2023-07-31T10:43:24;4.82;;;1.70;;
71127;SDS011;59249;59.736;30.568;2023-07-31T10:45:54;5.55;;;1.92;;
71127;SDS011;59249;59.736;30.568;2023-07-31T10:48:26;3.15;;;1.50;;
71127;SDS011;59249;59.736;30.568;2023-07-31T10:51:06;5.00;;;1.65;;
71127;SDS011;59249;59.736;30.568;2023-07-31T10:53:38;4.47;;;1.83;;
71127;SDS011;59249;59.736;30.568;2023-07-31T10:56:09;3.83;;;1.98;;
71127;SDS011;59249;59.736;30.568;2023-07-31T10:58:42;3.40;;;1.58;;
71127;SDS011;59249;59.736;30.568;2023-07-31T11:01:13;4.97;;;1.80;;
71127;SDS011;59249;59.736;30.568;2023-07-31T11:03:42;5.65;;;1.70;;
71127;SDS011;59249;59.736;30.568;2023-07-31T11:06:15;3.63;;;1.80;;
71127;SDS011;59249;59.736;30.568;2023-07-31T11:08:46;6.05;;;1.80;;
71127;SDS011;59249;59.736;30.568;2023-07-31T11:11:18;4.38;;;2.00;;
71127;SDS011;59249;59.736;30.568;2023-07-31T11:13:50;3.75;;;1.70;;
71127;SDS011;59249;59.736;30.568;2023-07-31T11:16:22;4.15;;;2.03;;
71127;SDS011;59249;59.736;30.568;2023-07-31T11:18:53;22.40;;;13.90;;
71127;SDS011;59249;59.736;30.568;2023-07-31T11:21:23;5.88;;;2.35;;
71127;SDS011;59249;59.736;30.568;2023-07-31T11:23:55;3.97;;;1.60;;
71127;SDS011;59249;59.736;30.568;2023-07-31T11:26:26;4.38;;;1.95;;
71127;SDS011;59249;59.736;30.568;2023-07-31T11:28:59;5.05;;;2.00;;
71127;SDS011;59249;59.736;30.568;2023-07-31T11:31:28;5.80;;;1.73;;
71127;SDS011;59249;59.736;30.568;2023-07-31T11:34:06;4.30;;;1.80;;
71127;SDS011;59249;59.736;30.568;2023-07-31T11:36:35;4.53;;;1.77;;
71127;SDS011;59249;59.736;30.568;2023-07-31T11:39:05;5.75;;;2.58;;
71127;SDS011;59249;59.736;30.568;2023-07-31T11:41:36;4.90;;;2.25;;
71127;SDS011;59249;59.736;30.568;2023-07-31T11:44:10;5.07;;;1.57;;
71127;SDS011;59249;59.736;30.568;2023-07-31T11:46:56;4.15;;;1.73;;
71127;SDS011;59249;59.736;30.568;2023-07-31T11:49:28;7.03;;;2.03;;
71127;SDS011;59249;59.736;30.568;2023-07-31T11:52:03;5.10;;;2.05;;
71127;SDS011;59249;59.736;30.568;2023-07-31T11:54:33;6.22;;;2.03;;
71127;SDS011;59249;59.736;30.568;2023-07-31T11:57:03;4.33;;;1.80;;
71127;SDS011;59249;59.736;30.568;2023-07-31T11:59:35;4.00;;;1.70;;
71127;SDS011;59249;59.736;30.568;2023-07-31T12:02:06;4.35;;;2.10;;
71127;SDS011;59249;59.736;30.568;2023-07-31T12:04:36;3.55;;;1.77;;
71127;SDS011;59249;59.736;30.568;2023-07-31T12:07:05;4.97;;;1.67;;
71127;SDS011;59249;59.736;30.568;2023-07-31T12:09:35;5.13;;;2.10;;
71127;SDS011;59249;59.736;30.568;2023-07-31T12:12:07;3.88;;;2.00;;
71127;SDS011;59249;59.736;30.568;2023-07-31T12:14:41;3.83;;;1.65;;
71127;SDS011;59249;59.736;30.568;2023-07-31T12:17:11;4.10;;;1.80;;
71127;SDS011;59249;59.736;30.568;2023-07-31T12:19:40;5.85;;;1.92;;
71127;SDS011;59249;59.736;30.568;2023-07-31T12:22:12;3.23;;;1.60;;
71127;SDS011;59249;59.736;30.568;2023-07-31T12:24:43;5.25;;;1.95;;
71127;SDS011;59249;59.736;30.568;2023-07-31T12:27:13;5.72;;;2.08;;
71127;SDS011;59249;59.736;30.568;2023-07-31T12:29:47;3.95;;;1.77;;
71127;SDS011;59249;59.736;30.568;2023-07-31T12:32:19;3.70;;;1.70;;
71127;SDS011;59249;59.736;30.568;2023-07-31T12:34:50;4.67;;;2.20;;
71127;SDS011;59249;59.736;30.568;2023-07-31T12:37:20;4.80;;;2.10;;
71127;SDS011;59249;59.736;30.568;2023-07-31T12:39:51;5.00;;;2.17;;
71127;SDS011;59249;59.736;30.568;2023-07-31T12:42:21;7.32;;;2.00;;
71127;SDS011;59249;59.736;30.568;2023-07-31T12:44:52;5.00;;;1.50;;
71127;SDS011;59249;59.736;30.568;2023-07-31T12:47:30;5.53;;;2.60;;
71127;SDS011;59249;59.736;30.568;2023-07-31T12:49:59;5.95;;;2.53;;
71127;SDS011;59249;59.736;30.568;2023-07-31T12:52:29;6.68;;;2.75;;
71127;SDS011;59249;59.736;30.568;2023-07-31T12:55:22;10.88;;;3.03;;
71127;SDS011;59249;59.736;30.568;2023-07-31T12:57:55;7.80;;;3.00;;
71127;SDS011;59249;59.736;30.568;2023-07-31T13:00:27;10.43;;;2.67;;
71127;SDS011;59249;59.736;30.568;2023-07-31T13:02:56;5.53;;;2.20;;
71127;SDS011;59249;59.736;30.568;2023-07-31T13:05:25;7.18;;;2.40;;
71127;SDS011;59249;59.736;30.568;2023-07-31T13:07:55;8.10;;;3.15;;
71127;SDS011;59249;59.736;30.568;2023-07-31T13:10:24;6.65;;;2.60;;
71127;SDS011;59249;59.736;30.568;2023-07-31T13:12:54;9.53;;;2.30;;
71127;SDS011;59249;59.736;30.568;2023-07-31T13:15:23;7.20;;;2.83;;
71127;SDS011;59249;59.736;30.568;2023-07-31T13:17:54;8.45;;;2.90;;
71127;SDS011;59249;59.736;30.568;2023-07-31T13:20:23;8.50;;;2.92;;
71127;SDS011;59249;59.736;30.568;2023-07-31T13:22:52;6.63;;;2.55;;
71127;SDS011;59249;59.736;30.568;2023-07-31T13:25:22;6.80;;;2.50;;
71127;SDS011;59249;59.736;30.568;2023-07-31T13:27:51;7.90;;;2.90;;
71127;SDS011;59249;59.736;30.568;2023-07-31T13:30:20;5.57;;;1.85;;
71127;SDS011;59249;59.736;30.568;2023-07-31T13:32:49;8.07;;;2.45;;
71127;SDS011;59249;59.736;30.568;2023-07-31T13:35:20;7.57;;;2.53;;
71127;SDS011;59249;59.736;30.568;2023-07-31T13:37:49;8.57;;;2.70;;
71127;SDS011;59249;59.736;30.568;2023-07-31T13:40:18;6.50;;;2.50;;
71127;SDS011;59249;59.736;30.568;2023-07-31T13:42:47;5.75;;;2.20;;
71127;SDS011;59249;59.736;30.568;2023-07-31T13:45:16;5.63;;;2.17;;
71127;SDS011;59249;59.736;30.568;2023-07-31T13:47:46;5.35;;;2.08;;
71127;SDS011;59249;59.736;30.568;2023-07-31T13:50:15;4.43;;;2.10;;
71127;SDS011;59249;59.736;30.568;2023-07-31T13:52:48;6.95;;;2.45;;
71127;SDS011;59249;59.736;30.568;2023-07-31T13:55:17;7.30;;;2.45;;
71127;SDS011;59249;59.736;30.568;2023-07-31T13:57:46;3.92;;;2.10;;
71127;SDS011;59249;59.736;30.568;2023-07-31T14:00:15;3.97;;;2.10;;
71127;SDS011;59249;59.736;30.568;2023-07-31T14:02:45;5.93;;;1.87;;
71127;SDS011;59249;59.736;30.568;2023-07-31T14:05:14;8.20;;;2.30;;
71127;SDS011;59249;59.736;30.568;2023-07-31T14:07:43;5.28;;;2.10;;
71127;SDS011;59249;59.736;30.568;2023-07-31T14:10:13;6.03;;;2.33;;
71127;SDS011;59249;59.736;30.568;2023-07-31T14:12:43;5.03;;;2.00;;
71127;SDS011;59249;59.736;30.568;2023-07-31T14:15:12;5.37;;;2.20;;
71127;SDS011;59249;59.736;30.568;2023-07-31T14:17:41;3.55;;;1.90;;
71127;SDS011;59249;59.736;30.568;2023-07-31T14:20:11;4.28;;;2.30;;
71127;SDS011;59249;59.736;30.568;2023-07-31T14:22:41;5.68;;;2.20;;
71127;SDS011;59249;59.736;30.568;2023-07-31T14:25:10;10.00;;;2.45;;
71127;SDS011;59249;59.736;30.568;2023-07-31T14:27:40;3.70;;;1.90;;
71127;SDS011;59249;59.736;30.568;2023-07-31T14:30:10;4.55;;;1.90;;
71127;SDS011;59249;59.736;30.568;2023-07-31T14:32:39;4.57;;;2.38;;
71127;SDS011;59249;59.736;30.568;2023-07-31T14:35:08;7.70;;;2.90;;
71127;SDS011;59249;59.736;30.568;2023-07-31T14:37:37;4.72;;;2.60;;
71127;SDS011;59249;59.736;30.568;2023-07-31T14:40:09;8.37;;;2.60;;
71127;SDS011;59249;59.736;30.568;2023-07-31T14:42:42;5.63;;;2.60;;
71127;SDS011;59249;59.736;30.568;2023-07-31T14:45:11;6.85;;;2.58;;
71127;SDS011;59249;59.736;30.568;2023-07-31T14:47:40;5.40;;;2.38;;
71127;SDS011;59249;59.736;30.568;2023-07-31T14:50:12;5.72;;;2.55;;